createdAt,value
2022-08-29T00:00:18.707Z,7.38
2022-08-29T00:02:48.997Z,8.40
2022-08-29T00:05:18.686Z,9.27
2022-08-29T00:07:46.397Z,8.82
2022-08-29T00:10:14.295Z,7.97
2022-08-29T00:12:42.904Z,8.20
2022-08-29T00:15:12.281Z,7.25
2022-08-29T00:17:40.278Z,8.82
2022-08-29T00:20:09.821Z,6.90
2022-08-29T00:22:37.046Z,7.32
2022-08-29T00:25:06.443Z,9.65
2022-08-29T00:27:34.006Z,9.05
2022-08-29T00:30:01.870Z,8.32
2022-08-29T00:32:34.972Z,9.52
2022-08-29T00:35:12.111Z,10.75
2022-08-29T00:37:39.710Z,9.20
2022-08-29T00:40:11.083Z,9.27
2022-08-29T00:42:39.279Z,10.68
2022-08-29T00:45:09.638Z,9.77
2022-08-29T00:47:47.610Z,9.35
2022-08-29T00:50:32.250Z,14.88
2022-08-29T00:53:01.717Z,8.10
2022-08-29T00:55:32.740Z,10.10
2022-08-29T00:58:06.236Z,9.52
2022-08-29T01:00:33.630Z,7.85
2022-08-29T01:03:04.583Z,8.18
2022-08-29T01:05:33.079Z,8.02
2022-08-29T01:08:00.842Z,9.95
2022-08-29T01:10:47.011Z,8.00
2022-08-29T01:13:14.667Z,9.20
2022-08-29T01:15:44.302Z,10.77
2022-08-29T01:18:13.711Z,8.60
2022-08-29T01:21:02.097Z,8.02
2022-08-29T01:23:55.251Z,7.82
2022-08-29T01:26:23.357Z,7.95
2022-08-29T01:28:52.258Z,10.43
2022-08-29T01:31:37.555Z,9.98
2022-08-29T01:34:13.552Z,8.35
2022-08-29T01:36:50.491Z,9.18
2022-08-29T01:39:18.766Z,9.75
2022-08-29T01:41:46.429Z,8.80
2022-08-29T01:44:20.093Z,9.25
2022-08-29T01:46:49.991Z,9.77
2022-08-29T01:49:19.619Z,8.50
2022-08-29T01:51:47.654Z,8.90
2022-08-29T01:54:15.756Z,9.43
2022-08-29T01:56:48.101Z,8.70
2022-08-29T01:59:17.548Z,8.88
2022-08-29T02:01:53.496Z,9.98
2022-08-29T02:04:20.918Z,8.30
2022-08-29T02:06:48.288Z,12.10
2022-08-29T02:09:15.749Z,9.45
2022-08-29T02:11:43.379Z,9.40
2022-08-29T02:14:19.129Z,9.02
2022-08-29T02:16:48.125Z,8.82
2022-08-29T02:19:16.630Z,9.45
2022-08-29T02:21:44.494Z,8.15
2022-08-29T02:24:25.018Z,8.50
2022-08-29T02:26:55.809Z,8.80
2022-08-29T02:29:24.642Z,7.22
2022-08-29T02:31:52.591Z,11.18
2022-08-29T02:34:20.236Z,8.20
2022-08-29T02:36:50.721Z,6.38
2022-08-29T02:39:18.411Z,6.47
2022-08-29T02:41:45.715Z,6.85
2022-08-29T02:44:13.360Z,8.43
2022-08-29T02:46:40.761Z,8.88
2022-08-29T02:49:08.462Z,8.23
2022-08-29T02:51:35.934Z,8.02
2022-08-29T02:54:05.943Z,7.53
2022-08-29T02:56:34.130Z,7.50
2022-08-29T03:02:08.029Z,12.88
2022-08-29T03:04:35.580Z,8.48
2022-08-29T03:07:05.062Z,7.00
2022-08-29T03:09:34.794Z,6.82
2022-08-29T03:12:02.298Z,6.70
2022-08-29T03:14:29.548Z,7.18
2022-08-29T03:16:56.911Z,10.73
2022-08-29T03:19:24.312Z,7.57
2022-08-29T03:21:52.081Z,6.97
2022-08-29T03:24:26.913Z,7.85
2022-08-29T03:26:56.470Z,8.57
2022-08-29T03:29:25.521Z,8.75
2022-08-29T03:31:53.820Z,9.23
2022-08-29T03:34:21.687Z,8.43
2022-08-29T03:36:49.489Z,7.80
2022-08-29T03:39:17.202Z,10.27
2022-08-29T03:41:44.515Z,7.68
2022-08-29T03:44:12.566Z,8.25
2022-08-29T03:46:39.906Z,6.97
2022-08-29T03:49:08.494Z,7.07
2022-08-29T03:51:38.825Z,7.00
2022-08-29T03:54:06.633Z,6.20
2022-08-29T03:56:34.393Z,7.03
2022-08-29T03:59:01.811Z,6.85
2022-08-29T04:01:29.892Z,6.68
2022-08-29T04:03:58.267Z,8.18
2022-08-29T04:06:29.865Z,8.55
2022-08-29T04:08:57.551Z,6.65
2022-08-29T04:11:25.825Z,6.30
2022-08-29T04:13:54.007Z,7.00
2022-08-29T04:16:24.523Z,7.38
2022-08-29T04:18:53.361Z,9.68
2022-08-29T04:21:20.881Z,7.05
2022-08-29T04:23:48.582Z,8.27
2022-08-29T04:29:10.882Z,7.00
2022-08-29T04:31:40.251Z,7.00
2022-08-29T04:34:34.465Z,9.15
2022-08-29T04:37:02.107Z,7.95
2022-08-29T04:39:29.361Z,7.95
2022-08-29T04:41:56.626Z,9.77
2022-08-29T04:44:23.908Z,13.07
2022-08-29T04:46:51.209Z,10.65
2022-08-29T04:49:18.733Z,11.05
2022-08-29T04:51:46.005Z,11.77
2022-08-29T04:54:13.261Z,12.13
2022-08-29T04:56:40.920Z,11.65
2022-08-29T04:59:15.792Z,10.25
2022-08-29T05:01:43.370Z,13.05
2022-08-29T05:04:14.322Z,10.70
2022-08-29T05:06:41.973Z,10.57
2022-08-29T05:09:09.256Z,11.30
2022-08-29T05:11:36.565Z,12.35
2022-08-29T05:14:04.021Z,13.52
2022-08-29T05:16:34.917Z,10.23
2022-08-29T05:19:03.112Z,9.20
2022-08-29T05:21:35.077Z,8.52
2022-08-29T05:24:06.211Z,9.40
2022-08-29T05:26:37.299Z,8.60
2022-08-29T05:29:08.634Z,7.60
2022-08-29T05:31:37.986Z,10.35
2022-08-29T05:34:32.325Z,10.07
2022-08-29T05:36:52.878Z,11.32
2022-08-29T05:39:20.213Z,9.85
2022-08-29T05:41:47.550Z,10.27
2022-08-29T05:44:14.912Z,11.38
2022-08-29T05:46:42.259Z,11.35
2022-08-29T05:49:09.530Z,10.00
2022-08-29T05:51:39.782Z,10.10
2022-08-29T05:54:07.575Z,10.60
2022-08-29T05:56:35.365Z,10.27
2022-08-29T05:59:02.824Z,10.13
2022-08-29T06:01:34.026Z,8.02
2022-08-29T06:04:01.582Z,8.30
2022-08-29T06:06:30.007Z,7.90
2022-08-29T06:08:58.481Z,9.25
2022-08-29T06:11:29.878Z,7.78
2022-08-29T06:14:06.929Z,9.05
2022-08-29T06:16:34.246Z,7.90
2022-08-29T06:19:04.542Z,7.40
2022-08-29T06:21:31.884Z,8.38
2022-08-29T06:23:59.628Z,6.93
2022-08-29T06:26:26.979Z,8.30
2022-08-29T06:28:54.240Z,6.80
2022-08-29T06:31:29.050Z,8.85
2022-08-29T06:34:10.958Z,6.13
2022-08-29T06:36:39.037Z,7.10
2022-08-29T06:39:11.605Z,6.38
2022-08-29T06:41:40.639Z,5.60
2022-08-29T06:44:08.817Z,6.20
2022-08-29T06:46:46.755Z,6.78
2022-08-29T06:49:45.576Z,6.85
2022-08-29T06:52:37.720Z,7.30
2022-08-29T06:55:34.067Z,5.05
2022-08-29T06:58:52.709Z,6.95
2022-08-29T07:01:29.092Z,6.15
2022-08-29T07:03:57.961Z,5.85
2022-08-29T07:06:26.829Z,8.43
2022-08-29T07:09:03.757Z,6.88
2022-08-29T07:11:31.962Z,5.40
2022-08-29T07:14:01.967Z,6.85
2022-08-29T07:16:30.984Z,6.57
2022-08-29T07:19:03.726Z,6.03
2022-08-29T07:21:31.387Z,5.88
2022-08-29T07:24:11.207Z,6.43
2022-08-29T07:26:46.087Z,5.70
2022-08-29T07:29:17.282Z,4.65
2022-08-29T07:31:45.040Z,5.97
2022-08-29T07:34:29.061Z,5.40
2022-08-29T07:36:56.369Z,4.75
2022-08-29T07:39:26.836Z,4.78
2022-08-29T07:41:54.222Z,5.22
2022-08-29T07:44:21.585Z,4.35
2022-08-29T07:46:49.290Z,5.00
2022-08-29T07:49:20.922Z,4.75
2022-08-29T07:51:48.523Z,6.45
2022-08-29T07:54:16.988Z,8.43
2022-08-29T07:56:46.246Z,6.35
2022-08-29T07:59:40.081Z,5.90
2022-08-29T08:02:07.613Z,7.47
2022-08-29T08:04:35.021Z,5.72
2022-08-29T08:07:06.423Z,7.80
2022-08-29T08:09:41.319Z,6.78
2022-08-29T08:12:25.701Z,5.25
2022-08-29T08:14:53.333Z,8.85
2022-08-29T08:17:21.312Z,5.53
2022-08-29T08:19:48.752Z,6.22
2022-08-29T08:22:16.042Z,5.90
2022-08-29T08:24:43.535Z,5.43
2022-08-29T08:27:11.054Z,8.88
2022-08-29T08:29:38.378Z,8.30
2022-08-29T08:32:05.816Z,5.85
2022-08-29T08:34:35.706Z,8.65
2022-08-29T08:39:58.264Z,7.03
2022-08-29T08:42:42.646Z,7.55
2022-08-29T08:45:18.518Z,9.07
2022-08-29T08:47:46.077Z,6.38
2022-08-29T08:50:51.185Z,8.20
2022-08-29T08:53:37.556Z,7.60
2022-08-29T08:56:16.430Z,7.85
2022-08-29T08:58:55.163Z,6.13
2022-08-29T09:01:28.583Z,6.65
2022-08-29T09:04:10.708Z,9.43
2022-08-29T09:06:45.228Z,10.90
2022-08-29T09:09:26.666Z,8.23
2022-08-29T09:12:12.813Z,7.97
2022-08-29T09:14:58.985Z,8.05
2022-08-29T09:18:13.679Z,8.20
2022-08-29T09:20:42.961Z,7.93
2022-08-29T09:23:21.562Z,6.63
2022-08-29T09:25:50.474Z,6.70
2022-08-29T09:28:18.118Z,5.55
2022-08-29T09:31:14.759Z,5.40
2022-08-29T09:33:54.304Z,5.10
2022-08-29T09:36:47.426Z,8.65
2022-08-29T09:39:31.258Z,8.43
2022-08-29T09:42:35.446Z,9.82
2022-08-29T09:45:26.068Z,6.25
2022-08-29T09:48:21.127Z,7.25
2022-08-29T09:50:48.598Z,6.43
2022-08-29T09:53:24.387Z,7.13
2022-08-29T09:55:55.168Z,8.13
2022-08-29T09:58:22.455Z,7.25
2022-08-29T10:01:15.072Z,6.68
2022-08-29T10:04:11.489Z,6.47
2022-08-29T10:09:30.823Z,7.28
2022-08-29T10:12:14.501Z,8.70
2022-08-29T10:15:19.724Z,8.50
2022-08-29T10:18:25.017Z,9.55
2022-08-29T10:21:04.590Z,7.53
2022-08-29T10:23:44.454Z,8.13
2022-08-29T10:26:33.015Z,8.25
2022-08-29T10:29:28.520Z,6.95
2022-08-29T10:32:12.957Z,8.63
2022-08-29T10:34:56.409Z,7.18
2022-08-29T10:37:48.715Z,8.30
2022-08-29T10:40:38.190Z,6.80
2022-08-29T10:43:17.011Z,6.20
2022-08-29T10:45:52.289Z,7.15
2022-08-29T10:48:27.576Z,6.40
2022-08-29T10:51:10.287Z,7.00
2022-08-29T10:54:08.777Z,8.20
2022-08-29T10:56:46.325Z,8.13
2022-08-29T10:59:38.492Z,7.32
2022-08-29T11:02:19.293Z,7.60
2022-08-29T11:04:53.417Z,5.13
2022-08-29T11:07:23.787Z,5.87
2022-08-29T11:10:13.119Z,6.85
2022-08-29T11:13:13.235Z,7.18
2022-08-29T11:15:50.407Z,7.72
2022-08-29T11:18:33.583Z,9.35
2022-08-29T11:21:51.022Z,8.25
2022-08-29T11:24:53.451Z,9.30
2022-08-29T11:27:34.532Z,6.47
2022-08-29T11:30:10.185Z,6.85
2022-08-29T11:33:28.776Z,6.93
2022-08-29T11:36:12.141Z,6.10
2022-08-29T11:38:45.705Z,6.85
2022-08-29T11:41:33.657Z,5.97
2022-08-29T11:44:37.223Z,5.40
2022-08-29T11:47:41.039Z,7.13
2022-08-29T11:50:23.082Z,5.22
2022-08-29T11:53:05.421Z,5.78
2022-08-29T11:55:37.538Z,5.93
2022-08-29T11:58:49.313Z,5.80
2022-08-29T12:11:06.633Z,6.25
2022-08-29T12:21:36.525Z,3.80
2022-08-29T12:32:22.618Z,4.22
2022-08-29T12:35:01.733Z,6.60
2022-08-29T12:37:52.942Z,4.82
2022-08-29T12:40:21.274Z,4.07
2022-08-29T12:43:09.178Z,6.55
2022-08-29T12:45:43.644Z,5.22
2022-08-29T12:48:26.889Z,5.28
2022-08-29T12:50:56.552Z,5.32
2022-08-29T12:53:27.779Z,4.68
2022-08-29T12:56:00.044Z,6.03
2022-08-29T12:58:44.906Z,4.07
2022-08-29T13:01:38.043Z,4.70
2022-08-29T13:04:11.402Z,4.68
2022-08-29T13:07:01.386Z,5.38
2022-08-29T13:09:38.286Z,6.80
2022-08-29T13:12:25.198Z,4.93
2022-08-29T13:15:05.005Z,4.37
2022-08-29T13:17:45.105Z,4.68
2022-08-29T13:20:38.141Z,6.05
2022-08-29T13:23:05.425Z,5.05
2022-08-29T13:25:33.719Z,4.82
2022-08-29T13:28:03.136Z,4.88
2022-08-29T13:30:30.448Z,5.47
2022-08-29T13:32:58.753Z,4.13
2022-08-29T13:35:35.799Z,5.18
2022-08-29T13:38:23.893Z,5.47
2022-08-29T13:40:56.994Z,3.47
2022-08-29T13:43:38.736Z,4.25
2022-08-29T13:49:36.384Z,6.03
2022-08-29T13:52:04.112Z,3.97
2022-08-29T13:54:35.897Z,4.35
2022-08-29T13:57:32.740Z,5.88
2022-08-29T14:00:06.041Z,4.60
2022-08-29T14:06:02.126Z,7.28
2022-08-29T14:08:34.596Z,4.50
2022-08-29T14:11:15.075Z,4.30
2022-08-29T14:13:42.858Z,4.38
2022-08-29T14:16:13.912Z,4.53
2022-08-29T14:18:43.638Z,5.32
2022-08-29T14:21:13.363Z,4.75
2022-08-29T14:23:48.218Z,6.13
2022-08-29T14:26:15.597Z,5.10
2022-08-29T14:28:48.009Z,6.22
2022-08-29T14:31:22.264Z,5.97
2022-08-29T14:33:54.165Z,5.75
2022-08-29T14:36:27.334Z,8.07
2022-08-29T14:39:03.587Z,5.45
2022-08-29T14:42:11.393Z,5.38
2022-08-29T14:44:51.515Z,4.55
2022-08-29T14:47:45.359Z,5.30
2022-08-29T14:50:14.112Z,6.45
2022-08-29T14:53:10.906Z,5.78
2022-08-29T14:55:38.335Z,5.18
2022-08-29T14:58:24.688Z,4.30
2022-08-29T15:00:52.017Z,5.55
2022-08-29T15:06:48.134Z,5.72
2022-08-29T15:09:16.224Z,5.97
2022-08-29T15:11:46.309Z,4.82
2022-08-29T15:14:15.852Z,4.28
2022-08-29T15:16:43.184Z,6.82
2022-08-29T15:21:57.892Z,4.93
2022-08-29T15:24:27.439Z,5.32
2022-08-29T15:26:57.702Z,4.20
2022-08-29T15:29:31.972Z,4.93
2022-08-29T15:32:02.851Z,4.35
2022-08-29T15:34:31.112Z,5.68
2022-08-29T15:37:02.169Z,6.43
2022-08-29T15:39:29.842Z,4.00
2022-08-29T15:41:59.527Z,4.85
2022-08-29T15:44:28.446Z,4.75
2022-08-29T15:46:58.142Z,4.30
2022-08-29T15:49:40.691Z,5.57
2022-08-29T15:52:07.995Z,4.65
2022-08-29T15:54:38.596Z,4.95
2022-08-29T15:57:31.088Z,9.35
2022-08-29T16:00:14.779Z,5.43
2022-08-29T16:02:51.903Z,4.38
2022-08-29T16:05:20.715Z,4.68
2022-08-29T16:07:48.042Z,3.92
2022-08-29T16:10:17.811Z,4.47
2022-08-29T16:12:45.178Z,4.30
2022-08-29T16:15:12.521Z,6.97
2022-08-29T16:17:40.136Z,5.40
2022-08-29T16:20:11.593Z,4.32
2022-08-29T16:22:43.048Z,5.47
2022-08-29T16:25:12.315Z,4.15
2022-08-29T16:27:40.507Z,4.18
2022-08-29T16:30:10.149Z,5.88
2022-08-29T16:32:44.598Z,6.43
2022-08-29T16:35:13.366Z,6.10
2022-08-29T16:37:40.772Z,4.53
2022-08-29T16:40:09.137Z,4.13
2022-08-29T16:42:39.176Z,3.97
2022-08-29T16:45:09.374Z,5.15
2022-08-29T16:47:37.611Z,5.38
2022-08-29T16:50:08.170Z,4.93
2022-08-29T16:52:57.287Z,6.15
2022-08-29T16:55:25.577Z,3.83
2022-08-29T16:58:55.023Z,5.53
2022-08-29T17:01:40.328Z,5.13
2022-08-29T17:04:36.956Z,3.90
2022-08-29T17:07:04.666Z,4.35
2022-08-29T17:09:34.588Z,4.05
2022-08-29T17:12:03.590Z,5.68
2022-08-29T17:14:31.191Z,4.00
2022-08-29T17:17:44.770Z,5.00
2022-08-29T17:20:12.832Z,4.75
2022-08-29T17:22:40.662Z,4.43
2022-08-29T17:25:35.452Z,3.90
2022-08-29T17:28:19.044Z,4.40
2022-08-29T17:30:50.633Z,5.47
2022-08-29T17:33:43.185Z,6.38
2022-08-29T17:40:09.324Z,4.75
2022-08-29T17:43:44.673Z,4.43
2022-08-29T17:46:01.935Z,4.35
2022-08-29T17:48:29.393Z,5.22
2022-08-29T17:50:57.346Z,5.50
2022-08-29T17:53:25.128Z,4.40
2022-08-29T17:55:55.805Z,6.22
2022-08-29T17:58:23.252Z,4.30
2022-08-29T18:00:51.555Z,4.55
2022-08-29T18:03:19.476Z,4.20
2022-08-29T18:05:46.800Z,4.53
2022-08-29T18:08:15.296Z,4.97
2022-08-29T18:10:42.711Z,4.30
2022-08-29T18:13:09.971Z,5.97
2022-08-29T18:15:37.260Z,5.07
2022-08-29T18:18:05.707Z,5.45
2022-08-29T18:20:33.152Z,6.15
2022-08-29T18:23:00.440Z,4.03
2022-08-29T18:25:27.748Z,6.63
2022-08-29T18:27:55.022Z,5.05
2022-08-29T18:30:22.340Z,6.57
2022-08-29T18:32:49.726Z,5.70
2022-08-29T18:35:17.982Z,7.78
2022-08-29T18:37:45.300Z,5.90
2022-08-29T18:40:12.864Z,9.30
2022-08-29T18:42:41.483Z,6.55
2022-08-29T18:45:10.029Z,7.70
2022-08-29T18:47:37.571Z,8.25
2022-08-29T18:50:25.112Z,6.75
2022-08-29T18:52:52.891Z,6.93
2022-08-29T18:55:22.716Z,6.63
2022-08-29T18:57:50.628Z,5.72
2022-08-29T19:00:18.797Z,6.80
2022-08-29T19:02:46.259Z,5.97
2022-08-29T19:05:14.044Z,7.70
2022-08-29T19:07:41.490Z,7.30
2022-08-29T19:10:17.616Z,6.43
2022-08-29T19:12:46.877Z,7.20
2022-08-29T19:15:19.558Z,7.18
2022-08-29T19:17:49.471Z,5.85
2022-08-29T19:20:39.699Z,8.40
2022-08-29T19:23:08.031Z,6.90
2022-08-29T19:25:36.350Z,6.88
2022-08-29T19:28:05.080Z,10.45
2022-08-29T19:30:33.585Z,7.03
2022-08-29T19:33:01.329Z,6.82
2022-08-29T19:35:28.620Z,7.03
2022-08-29T19:37:56.628Z,7.05
2022-08-29T19:40:24.171Z,6.72
2022-08-29T19:42:51.857Z,7.18
2022-08-29T19:45:20.297Z,9.23
2022-08-29T19:47:49.370Z,6.78
2022-08-29T19:50:18.965Z,7.50
2022-08-29T19:52:47.680Z,6.78
2022-08-29T19:55:18.827Z,9.55
2022-08-29T19:57:47.421Z,8.45
2022-08-29T20:00:17.499Z,7.80
2022-08-29T20:02:45.905Z,6.78
2022-08-29T20:05:14.341Z,6.97
2022-08-29T20:07:44.812Z,8.40
2022-08-29T20:10:21.540Z,7.60
2022-08-29T20:12:51.207Z,6.40
2022-08-29T20:15:20.024Z,7.00
2022-08-29T20:17:50.033Z,6.80
2022-08-29T20:20:24.417Z,8.38
2022-08-29T20:22:52.292Z,6.60
2022-08-29T20:25:20.772Z,8.80
2022-08-29T20:27:48.722Z,6.90
2022-08-29T20:30:22.894Z,6.30
2022-08-29T20:32:51.734Z,7.00
2022-08-29T20:35:40.632Z,8.02
2022-08-29T20:38:09.123Z,9.38
2022-08-29T20:40:39.131Z,8.35
2022-08-29T20:43:06.963Z,7.85
2022-08-29T20:45:34.621Z,7.03
2022-08-29T20:48:05.090Z,7.25
2022-08-29T20:50:58.757Z,6.72
2022-08-29T20:53:32.047Z,10.25
2022-08-29T20:56:03.214Z,9.50
2022-08-29T20:58:30.873Z,8.82
2022-08-29T21:01:01.696Z,8.90
2022-08-29T21:03:48.984Z,8.20
2022-08-29T21:06:21.683Z,7.78
2022-08-29T21:08:49.783Z,7.13
2022-08-29T21:11:17.201Z,7.25
2022-08-29T21:13:44.512Z,7.43
2022-08-29T21:16:12.235Z,9.40
2022-08-29T21:18:40.209Z,7.20
2022-08-29T21:21:12.377Z,8.18
2022-08-29T21:23:40.278Z,7.13
2022-08-29T21:26:11.373Z,7.07
2022-08-29T21:28:39.661Z,7.45
2022-08-29T21:31:10.308Z,6.97
2022-08-29T21:33:39.738Z,8.32
2022-08-29T21:36:22.970Z,7.05
2022-08-29T21:38:59.692Z,8.40
2022-08-29T21:41:29.394Z,7.32
2022-08-29T21:43:57.353Z,6.47
2022-08-29T21:50:07.432Z,6.50
2022-08-29T21:52:35.115Z,6.97
2022-08-29T21:55:11.072Z,6.63
2022-08-29T21:57:58.628Z,6.40
2022-08-29T22:00:35.509Z,6.25
2022-08-29T22:06:41.262Z,6.78
2022-08-29T22:09:15.413Z,6.53
2022-08-29T22:11:45.759Z,5.72
2022-08-29T22:14:16.949Z,7.82
2022-08-29T22:16:44.378Z,6.72
2022-08-29T22:19:18.381Z,6.93
2022-08-29T22:21:49.700Z,7.80
2022-08-29T22:24:21.006Z,6.40
2022-08-29T22:26:48.532Z,6.43
2022-08-29T22:29:17.761Z,6.20
2022-08-29T22:31:45.432Z,7.20
2022-08-29T22:34:16.334Z,6.38
2022-08-29T22:36:43.922Z,7.88
2022-08-29T22:39:11.867Z,9.30
2022-08-29T22:41:41.326Z,7.80
2022-08-29T22:47:01.479Z,8.13
2022-08-29T22:49:33.088Z,7.75
2022-08-29T22:52:03.524Z,6.70
2022-08-29T22:54:55.555Z,6.78
2022-08-29T22:57:23.290Z,8.40
2022-08-29T22:59:55.313Z,6.80
2022-08-29T23:02:33.526Z,8.82
2022-08-29T23:05:01.335Z,7.43
2022-08-29T23:07:28.716Z,6.80
2022-08-29T23:09:58.489Z,7.70
2022-08-29T23:12:26.011Z,6.30
2022-08-29T23:14:55.912Z,8.48
2022-08-29T23:17:48.757Z,8.98
2022-08-29T23:20:19.150Z,6.10
2022-08-29T23:23:40.965Z,6.32
2022-08-29T23:26:10.190Z,8.02
2022-08-29T23:28:49.989Z,7.18
2022-08-29T23:31:19.338Z,8.20
2022-08-29T23:33:47.828Z,7.68
2022-08-29T23:36:19.837Z,6.95
2022-08-29T23:38:47.405Z,8.48
2022-08-29T23:41:19.164Z,8.20
2022-08-29T23:43:55.335Z,6.50
2022-08-29T23:46:22.884Z,7.30
2022-08-29T23:49:10.610Z,7.47
2022-08-29T23:51:40.670Z,5.82
2022-08-29T23:54:08.292Z,6.78
2022-08-29T23:56:35.602Z,8.32
2022-08-29T23:59:03.197Z,5.80
